createdAt,value
2022-08-29T00:02:00.886Z,98686.00
2022-08-29T00:04:30.364Z,98692.00
2022-08-29T00:07:01.126Z,98708.00
2022-08-29T00:09:30.498Z,98707.00
2022-08-29T00:12:05.880Z,98709.00
2022-08-29T00:14:35.240Z,98706.00
2022-08-29T00:17:07.094Z,98707.00
2022-08-29T00:19:36.563Z,98705.00
2022-08-29T00:22:06.179Z,98702.00
2022-08-29T00:24:36.426Z,98698.00
2022-08-29T00:27:06.908Z,98702.00
2022-08-29T00:29:36.756Z,98697.00
2022-08-29T00:32:09.321Z,98702.00
2022-08-29T00:34:38.605Z,98704.00
2022-08-29T00:37:07.877Z,98713.00
2022-08-29T00:39:40.024Z,98709.00
2022-08-29T00:42:09.577Z,98710.00
2022-08-29T00:44:38.913Z,98718.00
2022-08-29T00:47:13.514Z,98729.00
2022-08-29T00:49:49.806Z,98731.00
2022-08-29T00:52:41.110Z,98735.00
2022-08-29T00:55:17.568Z,98743.00
2022-08-29T00:57:54.662Z,98745.00
2022-08-29T01:00:25.865Z,98750.00
2022-08-29T01:02:58.709Z,98750.00
2022-08-29T01:05:28.348Z,98762.00
2022-08-29T01:07:57.868Z,98772.00
2022-08-29T01:10:39.861Z,98780.00
2022-08-29T01:13:14.092Z,98781.00
2022-08-29T01:15:46.933Z,98785.00
2022-08-29T01:18:19.240Z,98793.00
2022-08-29T01:21:35.531Z,98806.00
2022-08-29T01:24:35.239Z,98805.00
2022-08-29T01:27:10.331Z,98815.00
2022-08-29T01:29:39.882Z,98814.00
2022-08-29T01:32:09.600Z,98817.00
2022-08-29T01:34:41.382Z,98830.00
2022-08-29T01:37:15.433Z,98830.00
2022-08-29T01:39:46.862Z,98828.00
2022-08-29T01:42:24.141Z,98826.00
2022-08-29T01:44:59.142Z,98826.00
2022-08-29T01:47:39.848Z,98829.00
2022-08-29T01:50:15.444Z,98830.00
2022-08-29T01:52:45.416Z,98832.00
2022-08-29T01:55:15.031Z,98833.00
2022-08-29T01:57:44.888Z,98828.00
2022-08-29T02:00:19.336Z,98838.00
2022-08-29T02:02:48.952Z,98845.00
2022-08-29T02:05:18.332Z,98852.00
2022-08-29T02:07:50.426Z,98867.00
2022-08-29T02:10:19.964Z,98883.00
2022-08-29T02:12:49.595Z,98883.00
2022-08-29T02:15:20.064Z,98890.00
2022-08-29T02:17:49.654Z,98896.00
2022-08-29T02:20:19.692Z,98884.00
2022-08-29T02:22:49.208Z,98890.00
2022-08-29T02:25:31.478Z,98900.00
2022-08-29T02:28:01.212Z,98895.00
2022-08-29T02:30:30.475Z,98891.00
2022-08-29T02:32:59.778Z,98899.00
2022-08-29T02:35:29.407Z,98901.00
2022-08-29T02:38:00.558Z,98890.00
2022-08-29T02:40:31.724Z,98890.00
2022-08-29T02:43:03.141Z,98886.00
2022-08-29T02:45:33.315Z,98889.00
2022-08-29T02:48:02.669Z,98898.00
2022-08-29T02:50:32.254Z,98896.00
2022-08-29T02:53:01.610Z,98892.00
2022-08-29T02:55:31.292Z,98896.00
2022-08-29T02:58:00.651Z,98891.00
2022-08-29T03:00:30.409Z,98900.00
2022-08-29T03:02:59.996Z,98890.00
2022-08-29T03:05:34.312Z,98890.00
2022-08-29T03:08:08.418Z,98896.00
2022-08-29T03:10:38.514Z,98895.00
2022-08-29T03:13:08.147Z,98902.00
2022-08-29T03:15:37.607Z,98910.00
2022-08-29T03:18:07.607Z,98903.00
2022-08-29T03:20:39.716Z,98893.00
2022-08-29T03:23:10.631Z,98895.00
2022-08-29T03:25:40.451Z,98894.00
2022-08-29T03:28:09.789Z,98886.00
2022-08-29T03:30:39.271Z,98892.00
2022-08-29T03:33:11.785Z,98889.00
2022-08-29T03:35:41.989Z,98883.00
2022-08-29T03:38:11.467Z,98882.00
2022-08-29T03:40:43.881Z,98871.00
2022-08-29T03:43:13.123Z,98871.00
2022-08-29T03:45:43.262Z,98866.00
2022-08-29T03:48:12.662Z,98867.00
2022-08-29T03:50:42.015Z,98868.00
2022-08-29T03:53:11.360Z,98868.00
2022-08-29T03:55:41.162Z,98869.00
2022-08-29T03:58:10.430Z,98864.00
2022-08-29T04:00:39.902Z,98868.00
2022-08-29T04:03:09.282Z,98870.00
2022-08-29T04:05:38.626Z,98877.00
2022-08-29T04:08:09.386Z,98886.00
2022-08-29T04:10:40.804Z,98883.00
2022-08-29T04:13:11.413Z,98883.00
2022-08-29T04:15:43.950Z,98892.00
2022-08-29T04:18:15.468Z,98885.00
2022-08-29T04:20:46.505Z,98888.00
2022-08-29T04:23:16.594Z,98877.00
2022-08-29T04:25:46.252Z,98871.00
2022-08-29T04:28:16.453Z,98869.00
2022-08-29T04:30:52.839Z,98867.00
2022-08-29T04:33:26.921Z,98876.00
2022-08-29T04:35:56.153Z,98874.00
2022-08-29T04:38:25.436Z,98878.00
2022-08-29T04:40:55.209Z,98880.00
2022-08-29T04:43:24.484Z,98879.00
2022-08-29T04:46:00.408Z,98884.00
2022-08-29T04:48:30.884Z,98883.00
2022-08-29T04:51:02.802Z,98872.00
2022-08-29T04:53:32.506Z,98871.00
2022-08-29T04:56:10.284Z,98866.00
2022-08-29T04:58:43.577Z,98862.00
2022-08-29T05:01:19.919Z,98854.00
2022-08-29T05:03:50.475Z,98856.00
2022-08-29T05:06:22.822Z,98849.00
2022-08-29T05:08:59.105Z,98848.00
2022-08-29T05:11:32.922Z,98853.00
2022-08-29T05:14:03.634Z,98857.00
2022-08-29T05:16:38.202Z,98850.00
2022-08-29T05:19:09.723Z,98846.00
2022-08-29T05:21:41.593Z,98845.00
2022-08-29T05:24:14.077Z,98848.00
2022-08-29T05:26:46.773Z,98845.00
2022-08-29T05:29:16.338Z,98843.00
2022-08-29T05:31:46.619Z,98843.00
2022-08-29T05:34:33.880Z,98840.00
2022-08-29T05:37:07.690Z,98846.00
2022-08-29T05:39:39.312Z,98838.00
2022-08-29T05:42:11.091Z,98829.00
2022-08-29T05:44:41.656Z,98830.00
2022-08-29T05:47:14.399Z,98831.00
2022-08-29T05:49:47.082Z,98827.00
2022-08-29T05:52:20.336Z,98831.00
2022-08-29T05:54:50.311Z,98837.00
2022-08-29T05:57:24.554Z,98841.00
2022-08-29T05:59:56.259Z,98836.00
2022-08-29T06:02:26.332Z,98833.00
2022-08-29T06:04:55.831Z,98832.00
2022-08-29T06:07:25.461Z,98831.00
2022-08-29T06:10:09.427Z,98829.00
2022-08-29T06:12:38.759Z,98824.00
2022-08-29T06:15:09.268Z,98811.00
2022-08-29T06:17:39.550Z,98810.00
2022-08-29T06:20:10.908Z,98805.00
2022-08-29T06:22:41.128Z,98799.00
2022-08-29T06:25:37.551Z,98793.00
2022-08-29T06:28:00.898Z,98791.00
2022-08-29T06:30:33.258Z,98783.00
2022-08-29T06:33:03.644Z,98781.00
2022-08-29T06:35:33.185Z,98777.00
2022-08-29T06:38:02.479Z,98774.00
2022-08-29T06:40:31.907Z,98766.00
2022-08-29T06:43:01.482Z,98765.00
2022-08-29T06:45:30.890Z,98760.00
2022-08-29T06:48:00.221Z,98760.00
2022-08-29T06:50:29.526Z,98764.00
2022-08-29T06:53:14.531Z,98754.00
2022-08-29T06:55:49.373Z,98753.00
2022-08-29T06:58:21.359Z,98748.00
2022-08-29T07:00:50.785Z,98741.00
2022-08-29T07:03:20.240Z,98735.00
2022-08-29T07:05:55.233Z,98727.00
2022-08-29T07:08:24.819Z,98733.00
2022-08-29T07:10:54.146Z,98734.00
2022-08-29T07:13:23.497Z,98727.00
2022-08-29T07:15:53.096Z,98722.00
2022-08-29T07:18:22.383Z,98709.00
2022-08-29T07:20:52.465Z,98710.00
2022-08-29T07:23:22.722Z,98710.00
2022-08-29T07:25:52.792Z,98699.00
2022-08-29T07:28:22.067Z,98703.00
2022-08-29T07:30:52.311Z,98692.00
2022-08-29T07:33:21.640Z,98694.00
2022-08-29T07:35:52.917Z,98685.00
2022-08-29T07:38:23.320Z,98682.00
2022-08-29T07:41:07.666Z,98682.00
2022-08-29T07:43:38.160Z,98675.00
2022-08-29T07:46:17.723Z,98668.00
2022-08-29T07:48:47.381Z,98663.00
2022-08-29T07:51:24.055Z,98658.00
2022-08-29T07:53:55.120Z,98656.00
2022-08-29T07:56:37.567Z,98652.00
2022-08-29T07:59:08.928Z,98653.00
2022-08-29T08:01:39.286Z,98647.00
2022-08-29T08:04:11.267Z,98643.00
2022-08-29T08:06:44.163Z,98641.00
2022-08-29T08:09:16.345Z,98640.00
2022-08-29T08:11:48.196Z,98647.00
2022-08-29T08:14:18.970Z,98639.00
2022-08-29T08:16:48.825Z,98625.00
2022-08-29T08:19:19.346Z,98620.00
2022-08-29T08:21:49.679Z,98616.00
2022-08-29T08:24:21.242Z,98605.00
2022-08-29T08:26:52.235Z,98605.00
2022-08-29T08:29:21.530Z,98600.00
2022-08-29T08:31:52.758Z,98598.00
2022-08-29T08:34:23.001Z,98599.00
2022-08-29T08:36:52.261Z,98589.00
2022-08-29T08:39:21.620Z,98591.00
2022-08-29T08:42:26.716Z,98581.00
2022-08-29T08:45:09.583Z,98592.00
2022-08-29T08:47:53.172Z,98595.00
2022-08-29T08:50:59.191Z,98604.00
2022-08-29T08:53:44.744Z,98609.00
2022-08-29T08:56:43.056Z,98610.00
2022-08-29T08:59:44.620Z,98617.00
2022-08-29T09:02:55.568Z,98615.00
2022-08-29T09:06:03.009Z,98614.00
2022-08-29T09:09:03.884Z,98610.00
2022-08-29T09:12:23.254Z,98616.00
2022-08-29T09:15:14.228Z,98617.00
2022-08-29T09:18:06.819Z,98614.00
2022-08-29T09:20:42.197Z,98610.00
2022-08-29T09:23:48.076Z,98595.00
2022-08-29T09:26:25.666Z,98580.00
2022-08-29T09:28:56.190Z,98577.00
2022-08-29T09:31:37.142Z,98575.00
2022-08-29T09:34:57.074Z,98583.00
2022-08-29T09:37:42.188Z,98578.00
2022-08-29T09:40:19.793Z,98579.00
2022-08-29T09:43:03.582Z,98586.00
2022-08-29T09:45:33.124Z,98585.00
2022-08-29T09:48:19.023Z,98585.00
2022-08-29T09:50:48.842Z,98583.00
2022-08-29T09:53:25.630Z,98572.00
2022-08-29T09:55:56.970Z,98568.00
2022-08-29T09:58:40.537Z,98567.00
2022-08-29T10:01:19.255Z,98575.00
2022-08-29T10:04:06.313Z,98576.00
2022-08-29T10:06:46.212Z,98578.00
2022-08-29T10:09:30.029Z,98586.00
2022-08-29T10:12:27.893Z,98574.00
2022-08-29T10:15:03.536Z,98586.00
2022-08-29T10:18:02.464Z,98593.00
2022-08-29T10:20:53.653Z,98585.00
2022-08-29T10:24:05.308Z,98595.00
2022-08-29T10:27:11.110Z,98588.00
2022-08-29T10:30:17.419Z,98596.00
2022-08-29T10:33:17.286Z,98595.00
2022-08-29T10:36:20.891Z,98601.00
2022-08-29T10:39:07.146Z,98600.00
2022-08-29T10:42:22.671Z,98594.00
2022-08-29T10:45:28.457Z,98597.00
2022-08-29T10:48:23.054Z,98595.00
2022-08-29T10:51:33.898Z,98599.00
2022-08-29T10:54:32.591Z,98600.00
2022-08-29T10:57:04.972Z,98602.00
2022-08-29T11:00:03.759Z,98599.00
2022-08-29T11:03:04.430Z,98599.00
2022-08-29T11:05:42.480Z,98591.00
2022-08-29T11:08:35.565Z,98591.00
2022-08-29T11:11:05.950Z,98588.00
2022-08-29T11:13:51.303Z,98603.00
2022-08-29T11:16:34.092Z,98608.00
2022-08-29T11:19:23.167Z,98611.00
2022-08-29T11:22:07.914Z,98615.00
2022-08-29T11:24:44.061Z,98620.00
2022-08-29T11:27:54.200Z,98611.00
2022-08-29T11:30:37.548Z,98610.00
2022-08-29T11:33:37.584Z,98611.00
2022-08-29T11:36:55.364Z,98606.00
2022-08-29T11:40:01.843Z,98610.00
2022-08-29T11:42:53.554Z,98601.00
2022-08-29T11:45:39.684Z,98609.00
2022-08-29T11:48:35.936Z,98605.00
2022-08-29T11:51:51.703Z,98609.00
2022-08-29T11:54:55.094Z,98602.00
2022-08-29T11:57:50.517Z,98603.00
2022-08-29T12:00:45.369Z,98609.00
2022-08-29T12:03:47.159Z,98624.00
2022-08-29T12:07:01.204Z,98637.00
2022-08-29T12:09:53.239Z,98635.00
2022-08-29T12:12:47.355Z,98634.00
2022-08-29T12:15:53.514Z,98632.00
2022-08-29T12:18:57.237Z,98645.00
2022-08-29T12:21:51.662Z,98655.00
2022-08-29T12:24:44.072Z,98657.00
2022-08-29T12:28:25.086Z,98661.00
2022-08-29T12:31:30.457Z,98674.00
2022-08-29T12:34:49.757Z,98666.00
2022-08-29T12:37:46.210Z,98677.00
2022-08-29T12:41:14.261Z,98675.00
2022-08-29T12:43:47.803Z,98689.00
2022-08-29T12:46:34.167Z,98694.00
2022-08-29T12:49:31.734Z,98699.00
2022-08-29T12:52:08.413Z,98704.00
2022-08-29T12:54:45.996Z,98705.00
2022-08-29T12:57:37.203Z,98709.00
2022-08-29T13:00:20.267Z,98712.00
2022-08-29T13:03:19.319Z,98717.00
2022-08-29T13:05:49.440Z,98714.00
2022-08-29T13:08:34.224Z,98722.00
2022-08-29T13:11:11.599Z,98719.00
2022-08-29T13:13:42.251Z,98732.00
2022-08-29T13:16:32.486Z,98729.00
2022-08-29T13:19:12.067Z,98728.00
2022-08-29T13:21:46.728Z,98737.00
2022-08-29T13:24:22.394Z,98738.00
2022-08-29T13:27:12.398Z,98745.00
2022-08-29T13:29:44.142Z,98752.00
2022-08-29T13:32:27.834Z,98761.00
2022-08-29T13:35:32.660Z,98767.00
2022-08-29T13:38:25.032Z,98775.00
2022-08-29T13:40:59.849Z,98781.00
2022-08-29T13:43:45.799Z,98788.00
2022-08-29T13:46:28.553Z,98794.00
2022-08-29T13:49:05.966Z,98799.00
2022-08-29T13:51:35.246Z,98806.00
2022-08-29T13:54:04.434Z,98812.00
2022-08-29T13:56:35.123Z,98817.00
2022-08-29T13:59:05.973Z,98821.00
2022-08-29T14:04:38.069Z,98825.00
2022-08-29T14:07:10.563Z,98836.00
2022-08-29T14:09:46.665Z,98837.00
2022-08-29T14:12:17.298Z,98839.00
2022-08-29T14:14:47.379Z,98844.00
2022-08-29T14:17:39.187Z,98849.00
2022-08-29T14:20:15.270Z,98855.00
2022-08-29T14:22:46.077Z,98861.00
2022-08-29T14:25:20.202Z,98863.00
2022-08-29T14:27:50.343Z,98853.00
2022-08-29T14:30:23.840Z,98856.00
2022-08-29T14:32:56.495Z,98858.00
2022-08-29T14:35:27.580Z,98848.00
2022-08-29T14:38:03.071Z,98849.00
2022-08-29T14:40:34.206Z,98848.00
2022-08-29T14:43:04.751Z,98846.00
2022-08-29T14:45:34.418Z,98850.00
2022-08-29T14:48:04.699Z,98859.00
2022-08-29T14:50:34.442Z,98854.00
2022-08-29T14:53:03.820Z,98857.00
2022-08-29T14:55:34.300Z,98860.00
2022-08-29T14:58:03.970Z,98859.00
2022-08-29T15:00:35.092Z,98860.00
2022-08-29T15:03:15.217Z,98868.00
2022-08-29T15:05:48.658Z,98866.00
2022-08-29T15:08:23.219Z,98874.00
2022-08-29T15:10:55.797Z,98874.00
2022-08-29T15:13:25.088Z,98873.00
2022-08-29T15:15:54.487Z,98876.00
2022-08-29T15:19:05.529Z,98880.00
2022-08-29T15:21:27.931Z,98881.00
2022-08-29T15:23:57.917Z,98878.00
2022-08-29T15:26:28.838Z,98877.00
2022-08-29T15:29:00.221Z,98873.00
2022-08-29T15:31:33.825Z,98875.00
2022-08-29T15:34:13.275Z,98879.00
2022-08-29T15:36:42.537Z,98875.00
2022-08-29T15:39:11.838Z,98867.00
2022-08-29T15:41:41.175Z,98871.00
2022-08-29T15:44:13.529Z,98876.00
2022-08-29T15:46:51.342Z,98872.00
2022-08-29T15:49:27.013Z,98873.00
2022-08-29T15:51:57.560Z,98869.00
2022-08-29T15:54:28.093Z,98869.00
2022-08-29T15:56:57.391Z,98857.00
2022-08-29T15:59:54.361Z,98858.00
2022-08-29T16:02:18.496Z,98863.00
2022-08-29T16:04:48.733Z,98865.00
2022-08-29T16:07:23.545Z,98864.00
2022-08-29T16:10:04.568Z,98857.00
2022-08-29T16:12:40.898Z,98858.00
2022-08-29T16:15:10.740Z,98854.00
2022-08-29T16:17:40.819Z,98851.00
2022-08-29T16:20:16.215Z,98858.00
2022-08-29T16:22:48.991Z,98851.00
2022-08-29T16:25:19.836Z,98855.00
2022-08-29T16:27:49.425Z,98839.00
2022-08-29T16:30:20.314Z,98848.00
2022-08-29T16:32:52.031Z,98856.00
2022-08-29T16:35:21.729Z,98858.00
2022-08-29T16:37:51.408Z,98864.00
2022-08-29T16:40:33.428Z,98851.00
2022-08-29T16:43:05.221Z,98863.00
2022-08-29T16:45:35.705Z,98860.00
2022-08-29T16:48:14.333Z,98864.00
2022-08-29T16:50:45.480Z,98863.00
2022-08-29T16:53:14.780Z,98858.00
2022-08-29T16:55:44.157Z,98856.00
2022-08-29T16:58:25.912Z,98857.00
2022-08-29T17:00:55.210Z,98848.00
2022-08-29T17:03:24.604Z,98844.00
2022-08-29T17:05:54.351Z,98843.00
2022-08-29T17:08:23.408Z,98843.00
2022-08-29T17:10:52.718Z,98840.00
2022-08-29T17:13:23.666Z,98839.00
2022-08-29T17:15:53.394Z,98832.00
2022-08-29T17:18:23.360Z,98826.00
2022-08-29T17:21:00.846Z,98824.00
2022-08-29T17:23:32.778Z,98820.00
2022-08-29T17:26:06.011Z,98817.00
2022-08-29T17:28:36.027Z,98821.00
2022-08-29T17:31:06.496Z,98814.00
2022-08-29T17:33:36.333Z,98816.00
2022-08-29T17:36:08.576Z,98816.00
2022-08-29T17:38:40.871Z,98809.00
2022-08-29T17:41:15.159Z,98812.00
2022-08-29T17:43:49.454Z,98799.00
2022-08-29T17:46:22.886Z,98794.00
2022-08-29T17:48:52.206Z,98786.00
2022-08-29T17:51:21.667Z,98786.00
2022-08-29T17:53:52.852Z,98782.00
2022-08-29T17:56:45.013Z,98776.00
2022-08-29T17:59:17.324Z,98775.00
2022-08-29T18:01:47.643Z,98774.00
2022-08-29T18:04:17.245Z,98779.00
2022-08-29T18:06:47.693Z,98763.00
2022-08-29T18:09:17.639Z,98761.00
2022-08-29T18:11:51.011Z,98755.00
2022-08-29T18:14:24.031Z,98750.00
2022-08-29T18:16:55.086Z,98746.00
2022-08-29T18:19:25.672Z,98738.00
2022-08-29T18:21:55.974Z,98729.00
2022-08-29T18:24:25.869Z,98730.00
2022-08-29T18:26:55.547Z,98731.00
2022-08-29T18:29:24.730Z,98732.00
2022-08-29T18:31:54.272Z,98731.00
2022-08-29T18:34:25.346Z,98726.00
2022-08-29T18:36:54.703Z,98724.00
2022-08-29T18:39:23.930Z,98726.00
2022-08-29T18:41:53.278Z,98726.00
2022-08-29T18:44:24.528Z,98731.00
2022-08-29T18:46:54.202Z,98727.00
2022-08-29T18:49:43.254Z,98720.00
2022-08-29T18:52:14.407Z,98717.00
2022-08-29T18:54:44.485Z,98720.00
2022-08-29T18:57:13.729Z,98719.00
2022-08-29T18:59:43.519Z,98718.00
2022-08-29T19:02:14.028Z,98724.00
2022-08-29T19:04:43.563Z,98712.00
2022-08-29T19:07:12.839Z,98711.00
2022-08-29T19:09:42.039Z,98708.00
2022-08-29T19:12:12.034Z,98709.00
2022-08-29T19:14:46.587Z,98713.00
2022-08-29T19:17:16.000Z,98705.00
2022-08-29T19:20:00.292Z,98711.00
2022-08-29T19:22:29.900Z,98711.00
2022-08-29T19:24:59.384Z,98710.00
2022-08-29T19:27:42.885Z,98715.00
2022-08-29T19:30:17.641Z,98712.00
2022-08-29T19:32:55.471Z,98707.00
2022-08-29T19:35:26.571Z,98704.00
2022-08-29T19:37:57.742Z,98704.00
2022-08-29T19:40:34.990Z,98704.00
2022-08-29T19:43:13.560Z,98705.00
2022-08-29T19:45:45.129Z,98707.00
2022-08-29T19:48:14.754Z,98706.00
2022-08-29T19:50:48.653Z,98708.00
2022-08-29T19:53:26.332Z,98714.00
2022-08-29T19:55:57.669Z,98713.00
2022-08-29T19:58:32.051Z,98708.00
2022-08-29T20:01:11.112Z,98710.00
2022-08-29T20:03:43.355Z,98705.00
2022-08-29T20:06:13.370Z,98706.00
2022-08-29T20:08:49.397Z,98703.00
2022-08-29T20:11:23.158Z,98696.00
2022-08-29T20:13:57.917Z,98683.00
2022-08-29T20:16:33.155Z,98689.00
2022-08-29T20:19:06.005Z,98690.00
2022-08-29T20:21:36.909Z,98689.00
2022-08-29T20:24:06.520Z,98689.00
2022-08-29T20:26:40.948Z,98690.00
2022-08-29T20:29:13.246Z,98689.00
2022-08-29T20:31:42.720Z,98687.00
2022-08-29T20:34:15.110Z,98687.00
2022-08-29T20:36:59.844Z,98681.00
2022-08-29T20:39:31.290Z,98687.00
2022-08-29T20:42:02.371Z,98689.00
2022-08-29T20:44:38.801Z,98685.00
2022-08-29T20:47:12.640Z,98692.00
2022-08-29T20:49:51.523Z,98689.00
2022-08-29T20:52:21.760Z,98689.00
2022-08-29T20:54:53.562Z,98690.00
2022-08-29T20:57:26.128Z,98692.00
2022-08-29T20:59:56.950Z,98682.00
2022-08-29T21:02:38.757Z,98685.00
2022-08-29T21:05:21.046Z,98680.00
2022-08-29T21:07:54.663Z,98675.00
2022-08-29T21:10:25.590Z,98678.00
2022-08-29T21:12:58.399Z,98683.00
2022-08-29T21:15:28.516Z,98675.00
2022-08-29T21:17:58.113Z,98681.00
2022-08-29T21:20:28.355Z,98677.00
2022-08-29T21:23:01.659Z,98688.00
2022-08-29T21:25:31.087Z,98687.00
2022-08-29T21:28:00.682Z,98683.00
2022-08-29T21:30:30.995Z,98689.00
2022-08-29T21:33:00.501Z,98690.00
2022-08-29T21:35:30.431Z,98692.00
2022-08-29T21:37:59.707Z,98689.00
2022-08-29T21:40:29.126Z,98696.00
2022-08-29T21:42:58.483Z,98703.00
2022-08-29T21:45:28.135Z,98701.00
2022-08-29T21:47:59.062Z,98703.00
2022-08-29T21:50:30.191Z,98707.00
2022-08-29T21:52:59.507Z,98709.00
2022-08-29T21:55:28.861Z,98711.00
2022-08-29T21:58:00.406Z,98710.00
2022-08-29T22:00:36.364Z,98716.00
2022-08-29T22:03:09.993Z,98709.00
2022-08-29T22:05:43.155Z,98714.00
2022-08-29T22:08:14.347Z,98717.00
2022-08-29T22:10:44.451Z,98712.00
2022-08-29T22:13:13.848Z,98712.00
2022-08-29T22:15:55.404Z,98716.00
2022-08-29T22:18:25.319Z,98720.00
2022-08-29T22:20:55.746Z,98718.00
2022-08-29T22:23:25.811Z,98725.00
2022-08-29T22:25:55.255Z,98719.00
2022-08-29T22:28:25.593Z,98718.00
2022-08-29T22:30:54.954Z,98727.00
2022-08-29T22:33:24.233Z,98726.00
2022-08-29T22:35:53.982Z,98734.00
2022-08-29T22:38:23.317Z,98734.00
2022-08-29T22:40:52.730Z,98726.00
2022-08-29T22:43:22.325Z,98736.00
2022-08-29T22:45:55.100Z,98729.00
2022-08-29T22:48:24.329Z,98738.00
2022-08-29T22:50:57.971Z,98738.00
2022-08-29T22:53:28.077Z,98732.00
2022-08-29T22:55:57.810Z,98730.00
2022-08-29T22:58:27.114Z,98732.00
2022-08-29T23:00:56.944Z,98738.00
2022-08-29T23:03:26.214Z,98738.00
2022-08-29T23:05:55.479Z,98742.00
2022-08-29T23:08:24.644Z,98740.00
2022-08-29T23:10:54.549Z,98745.00
2022-08-29T23:13:25.061Z,98739.00
2022-08-29T23:15:54.284Z,98739.00
2022-08-29T23:18:24.214Z,98739.00
2022-08-29T23:20:53.497Z,98742.00
2022-08-29T23:23:22.959Z,98733.00
2022-08-29T23:25:52.251Z,98733.00
2022-08-29T23:28:21.635Z,98736.00
2022-08-29T23:30:50.943Z,98731.00
2022-08-29T23:33:21.459Z,98734.00
2022-08-29T23:35:50.618Z,98742.00
2022-08-29T23:38:20.499Z,98751.00
2022-08-29T23:40:52.861Z,98748.00
2022-08-29T23:43:23.676Z,98751.00
2022-08-29T23:45:53.691Z,98750.00
2022-08-29T23:48:27.379Z,98759.00
2022-08-29T23:50:57.534Z,98760.00
2022-08-29T23:53:27.163Z,98758.00
2022-08-29T23:55:56.454Z,98765.00
2022-08-29T23:58:25.670Z,98769.00
